Portada
METAR-TAF:

METAR-TAF

Aeroports :

Tucumán, Argentina

latitud: 26-51S, longitud: 065-06W, altitud: 440 m

Observació

L'informe es va fer fa 24 minuts, a les 07:00 UTC
Vent 4 kt del Est
Temperatura 24°C
Humitat 78%
Pressió 1015 hPa
Visibilitat 10 km o més
Cel ennuvolat a una alçada de 4000 ft

METAR: SANT 230700Z 09004KT 9999 BKN040 24/20 Q1015

Hora: 04:24 (07:24 UTC)

Pronòstic

L'informe es va fer fa 2 hores i 24 minuts, a les 05:00 UTC
Pronòstic vàlid del 23 a les 06 UTC al 24 a les 06 UTC
Vent 3 kt del Oest
Visibilitat: 7000 m
Cel ennuvolat a una alçada de 3000 ft
Temporalment
l' 23 a les 08 UTC al 23 a les 11 UTC
Vent 2 kt amb direcció variable
Visibilitat: 3000 m
Cel ennuvolat a una alçada de 1000 ft
boirina
Evolucionant progressivament
l' 23 a les 12 UTC al 23 a les 15 UTC
Vent 5 kt del Sud/Sud-Est
Visibilitat: 7000 m

TAF: SANT 230500Z 2306/2406 27003KT 7000 BKN030 TX32/2318Z TN22/2310Z TEMPO 2308/2311 VRB02KT 3000 BR BKN010 BECMG 2312/2315 16005KT 7000 NSC

Observacions i pronòstics meteorològics de més de 4000 aeroports (METAR i TAF).

Les estacions disponibles són els punts grocs i vermells al mapa.

Posi el ratolí al punt desitjat per veure el nom de l'estació.

Feu clic per veure les observacions i els pronòstics meteorològics.

Per canviar el mapa: feu clic els botons verds amb una creu de color negre per apropar; al botó verd amb un guió per allunyar la imatge; o en les fletxes verdes per a mapes adjacents.


METAR-TAF: